Time;durP1;ratioP1;P1;durP2;ratioP2;P2;SDS_P1;SDS_P2;PMS_P1;PMS_P2;Temp;Humidity;BMP_temperature;BMP_pressure;BME280_temperature;BME280_humidity;BME280_pressure;Samples;Min_cycle;Max_cycle;Signal;HPM_P1;HPM_P2
2023/03/30 00:01:38;;;;;;;;;7.50;7.00;;;;;3.91;64.73;98520.53;4927947;28;104158;-72
2023/03/30 00:04:05;;;;;;;;;12.50;11.00;;;;;3.90;64.44;98510.00;4928445;28;102221;-72
2023/03/30 00:06:33;;;;;;;;;13.00;10.25;;;;;3.94;64.79;98514.84;4927379;28;102032;-72
2023/03/30 00:08:59;;;;;;;;;8.00;7.25;;;;;3.95;64.62;98507.69;4926313;28;102618;-72
2023/03/30 00:11:26;;;;;;;;;12.00;10.00;;;;;3.95;64.30;98513.88;4928048;28;104113;-73
2023/03/30 00:13:54;;;;;;;;;12.50;11.50;;;;;3.98;64.51;98513.53;4928308;28;102427;-72
2023/03/30 00:16:21;;;;;;;;;11.00;10.00;;;;;4.00;65.13;98518.72;4927618;28;102356;-72
2023/03/30 00:18:49;;;;;;;;;12.00;10.25;;;;;4.03;65.57;98521.06;4928654;28;102378;-72
2023/03/30 00:21:19;;;;;;;;;11.25;7.75;;;;;4.03;64.17;98516.56;4927741;28;104256;-72
2023/03/30 00:23:47;;;;;;;;;11.25;9.50;;;;;4.05;64.76;98516.41;4926695;28;103139;-72
2023/03/30 00:26:14;;;;;;;;;6.25;5.00;;;;;4.07;64.71;98498.34;4929522;28;101825;-72
2023/03/30 00:28:41;;;;;;;;;16.75;14.75;;;;;4.07;64.04;98506.38;4929826;28;102231;-72
2023/03/30 00:31:10;;;;;;;;;8.25;6.25;;;;;4.10;64.63;98499.88;4930018;28;104167;-72
2023/03/30 00:33:37;;;;;;;;;10.75;9.50;;;;;4.07;65.10;98495.66;4930078;28;102176;-72
2023/03/30 00:36:14;;;;;;;;;7.00;6.00;;;;;4.07;64.71;98494.84;4928357;28;102284;-72
2023/03/30 00:38:41;;;;;;;;;8.00;7.50;;;;;4.05;63.99;98495.81;4926273;28;102322;-72
2023/03/30 00:41:08;;;;;;;;;6.00;5.00;;;;;4.03;64.64;98494.31;4928245;28;103821;-72
2023/03/30 00:43:54;;;;;;;;;5.00;3.00;;;;;4.02;64.74;98498.00;4928845;28;102042;-72
2023/03/30 00:46:22;;;;;;;;;3.50;3.50;;;;;3.98;64.59;98489.47;4927437;28;102251;-72
2023/03/30 00:48:49;;;;;;;;;5.75;4.25;;;;;3.84;64.95;98473.19;4930433;28;102332;-71
2023/03/30 00:51:18;;;;;;;;;4.50;3.00;;;;;3.93;65.69;98489.09;4910760;28;104184;-71
2023/03/30 00:53:48;;;;;;;;;5.00;2.25;;;;;3.90;65.56;98485.94;4914876;28;102354;-71
2023/03/30 00:56:18;;;;;;;;;4.00;3.00;;;;;3.84;65.76;98478.53;4928357;28;102197;-71
2023/03/30 00:58:46;;;;;;;;;2.75;2.75;;;;;3.85;65.52;98480.22;4930169;28;102083;-71
2023/03/30 01:01:24;;;;;;;;;2.75;1.75;;;;;3.86;67.15;98484.56;4928763;28;104127;-72
2023/03/30 01:03:52;;;;;;;;;4.00;2.25;;;;;3.84;67.49;98483.88;4929096;28;102337;-72
2023/03/30 01:06:23;;;;;;;;;2.00;1.50;;;;;3.81;67.01;98478.88;4928378;28;102224;-72
2023/03/30 01:08:51;;;;;;;;;4.75;3.25;;;;;3.83;66.61;98484.88;4927835;28;102475;-71
2023/03/30 01:11:20;;;;;;;;;2.75;2.75;;;;;3.83;67.89;98484.88;4926008;28;104174;-72
2023/03/30 01:13:50;;;;;;;;;1.25;1.25;;;;;3.82;67.37;98477.88;4929733;28;102296;-72
2023/03/30 01:16:26;;;;;;;;;2.25;1.00;;;;;3.79;67.08;98472.81;4927821;28;102547;-71
2023/03/30 01:19:15;;;;;;;;;2.75;2.00;;;;;3.77;67.13;98466.81;4928990;28;102429;-71
2023/03/30 01:21:48;;;;;;;;;3.50;3.50;;;;;3.80;66.81;98472.69;4927829;28;104071;-71
2023/03/30 01:24:52;;;;;;;;;5.00;3.00;;;;;3.81;67.33;98457.47;4926490;28;102294;-72
2023/03/30 01:27:47;;;;;;;;;4.75;3.25;;;;;3.84;66.77;98459.81;4929054;28;102013;-71
2023/03/30 01:30:40;;;;;;;;;5.50;2.50;;;;;3.83;66.70;98447.44;4930532;28;102405;-71
2023/03/30 01:33:19;;;;;;;;;2.00;1.00;;;;;3.88;66.87;98447.78;4928334;28;104208;-72
2023/03/30 01:36:02;;;;;;;;;6.00;4.50;;;;;3.87;65.81;98451.50;4926136;28;102123;-72
2023/03/30 01:39:17;;;;;;;;;7.25;5.25;;;;;3.88;67.40;98442.44;4926256;28;101902;-72
2023/03/30 01:42:03;;;;;;;;;3.50;3.00;;;;;3.89;67.30;98446.78;4924612;28;102487;-72
2023/03/30 01:44:39;;;;;;;;;5.25;5.25;;;;;3.91;67.08;98442.13;4922749;28;104213;-72
2023/03/30 01:47:39;;;;;;;;;5.25;3.50;;;;;3.90;66.28;98429.75;4924896;28;102276;-72
2023/03/30 01:50:12;;;;;;;;;6.25;3.00;;;;;3.90;66.63;98438.63;4911198;28;102263;-72
2023/03/30 01:52:53;;;;;;;;;6.50;4.50;;;;;3.88;67.08;98431.75;4928498;28;102205;-72
2023/03/30 01:55:50;;;;;;;;;5.00;3.00;;;;;3.88;67.21;98429.06;4923986;28;104230;-72
2023/03/30 01:58:42;;;;;;;;;2.75;2.25;;;;;3.93;66.39;98432.09;4925892;28;102896;-72
2023/03/30 02:01:13;;;;;;;;;7.00;5.75;;;;;3.90;67.28;98424.41;4925703;28;102188;-72
2023/03/30 02:03:45;;;;;;;;;5.75;5.00;;;;;3.94;66.84;98441.81;4928233;28;102383;-72
2023/03/30 02:06:20;;;;;;;;;3.00;3.00;;;;;3.93;66.47;98434.78;4926331;28;103965;-72
2023/03/30 02:08:49;;;;;;;;;1.50;1.00;;;;;3.89;68.04;98428.91;4924447;28;102301;-72
2023/03/30 02:11:17;;;;;;;;;4.50;3.50;;;;;3.80;67.60;98432.56;4923853;28;103189;-72
2023/03/30 02:13:46;;;;;;;;;6.75;4.00;;;;;3.78;67.25;98436.41;4926819;28;102315;-73
2023/03/30 02:16:23;;;;;;;;;4.00;2.25;;;;;3.72;67.36;98437.06;4923970;28;104205;-72
2023/03/30 02:18:53;;;;;;;;;6.75;4.50;;;;;3.66;67.64;98432.34;4926008;28;101897;-72
2023/03/30 02:21:21;;;;;;;;;7.00;2.50;;;;;3.63;67.17;98433.53;4928207;28;102463;-72
2023/03/30 02:23:52;;;;;;;;;5.25;3.00;;;;;3.61;67.03;98430.16;4928046;28;102384;-72
2023/03/30 02:26:21;;;;;;;;;2.50;2.50;;;;;3.51;67.97;98424.94;4940073;28;104031;-72
2023/03/30 02:28:50;;;;;;;;;2.00;2.00;;;;;3.55;68.51;98434.34;4927842;28;102262;-72
2023/03/30 02:31:17;;;;;;;;;4.50;4.50;;;;;3.54;67.63;98427.31;4927954;28;101993;-72
2023/03/30 02:33:47;;;;;;;;;1.75;1.00;;;;;3.52;67.81;98437.31;4929551;28;102285;-72
2023/03/30 02:36:26;;;;;;;;;1.25;1.25;;;;;3.50;69.16;98425.13;4926700;28;104035;-72
2023/03/30 02:39:09;;;;;;;;;2.50;2.00;;;;;3.50;68.83;98420.59;4925823;28;102306;-72
2023/03/30 02:42:03;;;;;;;;;4.00;2.00;;;;;3.52;69.10;98420.44;4928197;28;101946;-72
2023/03/30 02:44:46;;;;;;;;;1.00;0.00;;;;;3.55;69.92;98418.28;4925935;28;101943;-72
2023/03/30 02:47:51;;;;;;;;;2.00;1.00;;;;;3.56;69.81;98411.09;4926097;28;104072;-72
2023/03/30 02:50:32;;;;;;;;;2.00;2.00;;;;;3.60;69.40;98418.63;4905728;28;102482;-72
2023/03/30 02:53:26;;;;;;;;;1.50;1.25;;;;;3.63;69.45;98416.63;4922593;28;103296;-72
2023/03/30 02:56:12;;;;;;;;;2.75;2.75;;;;;3.64;68.77;98408.47;4926832;28;102558;-72
2023/03/30 02:58:52;;;;;;;;;1.75;1.75;;;;;3.66;69.03;98408.28;4927293;28;104059;-72
2023/03/30 03:01:37;;;;;;;;;3.00;1.00;;;;;3.67;69.75;98401.94;4928071;28;102454;-72
2023/03/30 03:04:06;;;;;;;;;2.00;1.00;;;;;3.69;69.58;98410.66;4925788;28;102195;-72
2023/03/30 03:06:33;;;;;;;;;0.75;0.75;;;;;3.70;69.15;98404.28;4928329;28;102434;-72
2023/03/30 03:09:00;;;;;;;;;2.75;1.50;;;;;3.62;68.87;98382.88;4929001;28;103965;-72
2023/03/30 03:11:27;;;;;;;;;2.00;2.00;;;;;3.71;70.07;98390.75;4929814;28;102196;-72
2023/03/30 03:13:54;;;;;;;;;3.00;1.50;;;;;3.73;69.48;98393.28;4930330;28;102194;-72
2023/03/30 03:16:21;;;;;;;;;1.50;1.50;;;;;3.66;69.88;98370.84;4931094;28;102167;-72
2023/03/30 03:18:48;;;;;;;;;1.00;1.00;;;;;3.74;70.06;98389.63;4928565;28;104303;-71
2023/03/30 03:21:15;;;;;;;;;2.00;2.00;;;;;3.78;69.84;98386.41;4930792;28;102209;-71
2023/03/30 03:23:42;;;;;;;;;1.00;1.00;;;;;3.48;70.43;98347.75;4930604;28;102093;-71
2023/03/30 03:26:10;;;;;;;;;0.00;0.00;;;;;3.78;71.14;98389.09;4928554;28;103173;-71
2023/03/30 03:28:37;;;;;;;;;1.00;1.00;;;;;3.77;70.87;98383.94;4930778;28;104064;-72
2023/03/30 03:31:04;;;;;;;;;1.00;0.25;;;;;3.78;70.35;98380.25;4930599;28;102290;-72
2023/03/30 03:33:32;;;;;;;;;3.50;2.00;;;;;3.77;70.88;98373.22;4931028;28;102139;-71
2023/03/30 03:35:59;;;;;;;;;3.00;3.00;;;;;3.75;72.21;98376.06;4928810;28;102237;-72
2023/03/30 03:38:27;;;;;;;;;2.75;2.75;;;;;3.76;71.45;98358.19;4929157;28;104135;-71
2023/03/30 03:40:57;;;;;;;;;3.00;3.00;;;;;3.77;71.25;98346.50;4927762;28;102361;-72
2023/03/30 03:43:24;;;;;;;;;2.25;2.00;;;;;3.77;71.25;98333.97;4929470;28;102034;-72
2023/03/30 03:45:52;;;;;;;;;7.00;5.75;;;;;3.78;71.73;98332.94;4928597;28;102034;-72
2023/03/30 03:48:23;;;;;;;;;7.25;7.00;;;;;3.79;71.55;98328.44;4927414;28;104053;-72
2023/03/30 03:50:52;;;;;;;;;6.25;5.00;;;;;3.78;71.38;98319.56;4926748;28;103366;-72
2023/03/30 03:53:19;;;;;;;;;2.25;2.25;;;;;3.84;71.38;98326.94;4927675;28;102313;-72
2023/03/30 03:55:46;;;;;;;;;6.75;5.00;;;;;3.89;70.57;98326.44;4907570;28;103790;-73
2023/03/30 03:58:14;;;;;;;;;2.00;1.00;;;;;3.92;71.92;98342.16;4929939;28;104198;-73
2023/03/30 04:00:42;;;;;;;;;2.00;1.50;;;;;3.78;70.22;98305.41;4929487;28;102620;-73
2023/03/30 04:03:10;;;;;;;;;2.75;2.75;;;;;3.97;69.67;98340.66;4930526;28;102234;-72
2023/03/30 04:05:38;;;;;;;;;1.00;1.00;;;;;3.99;69.63;98337.84;4929245;28;102535;-72
2023/03/30 04:08:09;;;;;;;;;4.00;2.50;;;;;4.03;69.44;98331.97;4927299;28;104051;-73
2023/03/30 04:10:39;;;;;;;;;0.25;0.25;;;;;4.06;69.44;98333.47;4925162;28;102502;-73
2023/03/30 04:13:07;;;;;;;;;2.50;2.00;;;;;4.05;69.41;98329.97;4927747;28;101833;-73
2023/03/30 04:15:35;;;;;;;;;2.00;2.00;;;;;4.04;69.22;98324.78;4927599;28;102417;-71
2023/03/30 04:18:04;;;;;;;;;3.50;2.00;;;;;4.08;69.24;98334.16;4927195;28;104025;-71
2023/03/30 04:20:32;;;;;;;;;3.00;3.00;;;;;4.08;69.25;98331.47;4925570;28;102867;-71
2023/03/30 04:23:00;;;;;;;;;5.50;3.00;;;;;4.09;69.42;98333.16;4929979;28;102420;-71
2023/03/30 04:25:28;;;;;;;;;4.75;2.50;;;;;4.10;69.79;98328.66;4925854;28;102663;-71
2023/03/30 04:27:56;;;;;;;;;5.00;3.00;;;;;4.09;70.03;98321.63;4930069;28;103793;-72
2023/03/30 04:30:23;;;;;;;;;6.25;5.50;;;;;4.03;70.40;98315.09;4928580;28;103692;-72
2023/03/30 04:33:01;;;;;;;;;3.00;3.00;;;;;4.05;70.34;98315.78;4929353;28;102961;-72
2023/03/30 04:35:30;;;;;;;;;5.75;2.75;;;;;4.09;69.91;98316.28;4927764;28;102307;-72
2023/03/30 04:37:58;;;;;;;;;6.00;6.00;;;;;4.09;70.04;98316.28;4928186;28;104035;-72
2023/03/30 04:40:26;;;;;;;;;11.50;7.25;;;;;4.09;70.36;98314.44;4924912;28;103081;-72
2023/03/30 04:42:53;;;;;;;;;9.00;6.00;;;;;4.09;70.00;98314.44;4929133;28;102398;-72
2023/03/30 04:45:20;;;;;;;;;5.75;4.50;;;;;4.11;70.94;98311.56;4929052;28;102268;-72
2023/03/30 04:47:47;;;;;;;;;5.50;4.25;;;;;4.12;70.62;98308.75;4928011;28;103984;-72
2023/03/30 04:50:14;;;;;;;;;3.50;3.50;;;;;4.15;71.29;98307.56;4929268;28;102140;-72
2023/03/30 04:52:41;;;;;;;;;5.00;3.50;;;;;4.17;71.00;98298.38;4929831;28;102231;-71
2023/03/30 04:55:10;;;;;;;;;3.00;2.25;;;;;4.20;70.58;98298.03;4929457;28;102313;-71
2023/03/30 04:57:37;;;;;;;;;3.00;2.50;;;;;4.21;71.18;98299.69;4926087;28;104236;-71
2023/03/30 05:00:06;;;;;;;;;5.00;5.00;;;;;4.26;71.45;98292.00;4928150;28;103568;-72
2023/03/30 05:02:34;;;;;;;;;3.00;3.00;;;;;4.26;71.43;98291.19;4929238;28;102231;-71
2023/03/30 05:05:01;;;;;;;;;4.50;3.00;;;;;4.29;71.02;98282.78;4929939;28;102304;-72
2023/03/30 05:07:28;;;;;;;;;6.00;5.00;;;;;4.36;71.73;98283.81;4928182;28;105545;-72
2023/03/30 05:09:55;;;;;;;;;2.00;2.00;;;;;4.41;71.70;98284.94;4927028;28;102081;-72
2023/03/30 05:12:22;;;;;;;;;6.75;5.00;;;;;4.45;72.18;98282.78;4926418;28;102387;-72
2023/03/30 05:14:49;;;;;;;;;8.00;3.50;;;;;4.48;71.10;98279.75;4927912;28;102235;-72
2023/03/30 05:17:16;;;;;;;;;4.50;3.50;;;;;4.54;71.53;98276.41;4927338;28;104028;-72
2023/03/30 05:19:43;;;;;;;;;5.75;3.75;;;;;4.58;71.06;98275.06;4926143;28;102066;-72
2023/03/30 05:22:10;;;;;;;;;7.00;6.00;;;;;4.62;71.36;98271.03;4927114;28;102277;-71
2023/03/30 05:24:37;;;;;;;;;8.00;7.00;;;;;4.65;71.21;98277.88;4928678;28;102247;-72
2023/03/30 05:27:05;;;;;;;;;6.75;3.00;;;;;4.72;71.32;98268.16;4925068;28;103642;-73
2023/03/30 05:29:32;;;;;;;;;2.00;1.75;;;;;4.75;70.87;98260.59;4925252;28;102081;-71
2023/03/30 05:31:59;;;;;;;;;2.75;2.00;;;;;4.83;70.79;98260.56;4926726;28;103237;-72
2023/03/30 05:34:26;;;;;;;;;3.00;2.50;;;;;4.87;70.25;98258.38;4929044;28;102356;-72
2023/03/30 05:36:53;;;;;;;;;2.00;2.00;;;;;4.97;71.15;98258.19;4928333;28;103613;-71
2023/03/30 05:39:22;;;;;;;;;2.00;2.00;;;;;5.03;70.56;98263.69;4927638;28;102904;-72
2023/03/30 05:41:49;;;;;;;;;4.00;3.50;;;;;5.09;70.58;98256.81;4922483;28;102256;-72
2023/03/30 05:44:17;;;;;;;;;2.00;1.75;;;;;5.15;70.36;98264.97;4928907;28;102300;-70
2023/03/30 05:46:47;;;;;;;;;3.00;2.25;;;;;5.20;69.88;98264.44;4929056;28;104014;-71
2023/03/30 05:49:14;;;;;;;;;2.00;2.00;;;;;5.25;69.52;98268.25;4927896;28;102376;-71
2023/03/30 05:51:41;;;;;;;;;2.75;1.00;;;;;5.34;69.65;98258.34;4927817;28;101861;-72
2023/03/30 05:54:11;;;;;;;;;1.00;1.00;;;;;5.45;69.28;98259.78;4929704;28;102025;-71
2023/03/30 05:56:39;;;;;;;;;2.25;2.00;;;;;5.56;68.88;98248.63;4924164;28;103974;-71
2023/03/30 05:59:09;;;;;;;;;4.00;3.00;;;;;5.69;69.01;98236.31;4928472;28;102188;-73
2023/03/30 06:01:36;;;;;;;;;1.00;1.00;;;;;5.85;68.67;98235.34;4928497;28;101885;-72
2023/03/30 06:04:04;;;;;;;;;2.25;2.25;;;;;5.96;68.45;98226.91;4929646;28;103081;-71
2023/03/30 06:06:31;;;;;;;;;5.00;2.75;;;;;6.02;68.88;98222.66;4928053;28;103974;-72
2023/03/30 06:08:58;;;;;;;;;1.00;1.00;;;;;6.17;68.86;98231.56;4928505;28;102218;-71
2023/03/30 06:11:25;;;;;;;;;3.75;3.00;;;;;6.30;68.44;98231.78;4907512;28;102117;-71
2023/03/30 06:13:52;;;;;;;;;5.00;3.00;;;;;6.40;68.80;98232.34;4929786;28;102077;-71
2023/03/30 06:16:20;;;;;;;;;8.25;7.25;;;;;6.49;68.04;98230.41;4927359;28;104015;-72
2023/03/30 06:18:47;;;;;;;;;3.50;3.25;;;;;6.57;67.58;98230.34;4928532;28;102295;-72
2023/03/30 06:21:14;;;;;;;;;4.75;3.75;;;;;6.63;67.58;98221.50;4927577;28;102166;-72
2023/03/30 06:23:42;;;;;;;;;2.50;2.00;;;;;6.66;66.97;98221.16;4931626;28;102179;-72
2023/03/30 06:26:10;;;;;;;;;7.50;6.00;;;;;6.66;67.32;98234.59;4717375;28;104461;-72
2023/03/30 06:28:37;;;;;;;;;6.75;6.25;;;;;6.69;67.43;98218.09;4745681;28;102670;-72
2023/03/30 06:31:08;;;;;;;;;6.75;6.00;;;;;6.85;66.46;98231.31;4916055;28;102252;-71
2023/03/30 06:33:36;;;;;;;;;9.75;8.25;;;;;6.91;66.50;98224.38;4913178;28;102529;-72
2023/03/30 06:36:10;;;;;;;;;5.00;4.00;;;;;7.05;66.16;98227.06;4925930;28;104078;-72
2023/03/30 06:38:37;;;;;;;;;6.00;4.00;;;;;7.24;66.36;98220.25;4931915;28;101820;-72
2023/03/30 06:41:08;;;;;;;;;3.75;3.75;;;;;7.37;64.22;98225.78;4904087;28;102380;-72
2023/03/30 06:43:43;;;;;;;;;4.75;3.00;;;;;7.47;64.19;98233.53;4913075;28;102506;-71
2023/03/30 06:46:32;;;;;;;;;5.00;2.25;;;;;7.49;63.21;98229.63;4906338;28;104164;-72
2023/03/30 06:49:14;;;;;;;;;5.00;3.00;;;;;7.52;64.23;98233.81;4906799;28;102109;-72
2023/03/30 06:51:53;;;;;;;;;5.00;2.75;;;;;7.57;63.54;98228.66;4913893;28;102180;-72
2023/03/30 06:54:25;;;;;;;;;4.00;2.00;;;;;7.59;64.26;98218.56;4908751;28;102009;-72
2023/03/30 06:56:59;;;;;;;;;2.50;2.50;;;;;7.55;63.60;98206.53;4903006;28;108246;-72
2023/03/30 06:59:39;;;;;;;;;3.25;3.00;;;;;7.62;63.24;98218.16;4914305;28;110605;-72
2023/03/30 07:02:20;;;;;;;;;5.00;3.00;;;;;7.65;64.04;98216.97;4908715;28;102350;-72
2023/03/30 07:04:54;;;;;;;;;4.00;4.00;;;;;7.62;63.87;98210.09;4913494;28;102443;-72
2023/03/30 07:07:21;;;;;;;;;4.25;4.00;;;;;7.62;64.35;98212.78;4901066;28;104086;-72
2023/03/30 07:09:48;;;;;;;;;4.00;4.00;;;;;7.68;64.02;98206.66;4898845;28;102210;-72
2023/03/30 07:12:15;;;;;;;;;4.00;3.00;;;;;7.59;63.09;98192.50;4912603;28;106456;-72
2023/03/30 07:14:42;;;;;;;;;6.25;3.00;;;;;7.89;62.51;98217.41;4912312;28;103296;-72
2023/03/30 07:17:10;;;;;;;;;6.50;3.50;;;;;8.13;62.15;98212.63;4890738;28;103997;-72
2023/03/30 07:19:37;;;;;;;;;2.00;2.00;;;;;8.35;62.64;98203.50;4889674;28;102165;-71
2023/03/30 07:22:04;;;;;;;;;2.50;2.50;;;;;8.55;61.81;98212.56;4890947;28;102439;-72
2023/03/30 07:24:32;;;;;;;;;1.00;1.00;;;;;8.63;60.02;98220.50;4894925;28;102166;-72
2023/03/30 07:26:59;;;;;;;;;2.50;2.50;;;;;8.67;59.83;98202.88;4894833;28;104007;-72
2023/03/30 07:29:27;;;;;;;;;2.75;2.75;;;;;8.74;60.12;98203.75;4883961;28;102148;-72
2023/03/30 07:31:55;;;;;;;;;3.75;3.00;;;;;8.81;59.68;98191.16;4892108;28;102021;-72
2023/03/30 07:34:23;;;;;;;;;3.50;3.00;;;;;8.81;60.73;98183.06;4926264;28;102029;-71
2023/03/30 07:36:49;;;;;;;;;3.25;3.00;;;;;8.90;60.29;98181.84;4887649;28;104158;-72
2023/03/30 07:39:16;;;;;;;;;2.00;1.00;;;;;9.09;59.33;98191.06;4888262;28;102308;-71
2023/03/30 07:41:43;;;;;;;;;3.00;2.75;;;;;9.36;60.24;98194.69;4890914;28;102887;-71
2023/03/30 07:44:10;;;;;;;;;7.25;4.00;;;;;9.59;59.38;98187.03;4887863;28;101984;-71
2023/03/30 07:46:38;;;;;;;;;3.50;3.50;;;;;9.73;57.98;98180.63;4884244;28;103414;-71
2023/03/30 07:49:05;;;;;;;;;8.00;4.00;;;;;9.92;56.60;98180.84;4890067;28;101966;-71
2023/03/30 07:51:33;;;;;;;;;5.00;4.00;;;;;10.06;57.05;98183.34;4886199;28;102158;-70
2023/03/30 07:54:00;;;;;;;;;9.00;9.00;;;;;9.99;56.79;98182.53;4884420;28;102097;-71
2023/03/30 07:56:32;;;;;;;;;7.00;7.00;;;;;10.27;56.87;98176.91;4883198;28;108775;-71
2023/03/30 07:58:59;;;;;;;;;8.25;8.25;;;;;10.42;55.34;98172.13;4892832;28;101804;-71
2023/03/30 08:01:27;;;;;;;;;10.50;9.75;;;;;10.55;55.07;98172.09;4894979;28;102362;-72
2023/03/30 08:03:54;;;;;;;;;12.00;9.00;;;;;10.78;53.95;98176.19;4921733;28;102500;-71
2023/03/30 08:06:22;;;;;;;;;12.50;11.25;;;;;10.94;53.49;98173.84;4882668;28;104175;-71
2023/03/30 08:08:54;;;;;;;;;8.75;8.75;;;;;11.17;54.26;98167.94;4881708;28;103215;-71
2023/03/30 08:11:21;;;;;;;;;9.50;8.50;;;;;11.34;52.95;98173.69;4891711;28;102409;-70
2023/03/30 08:13:48;;;;;;;;;9.75;9.25;;;;;11.52;51.28;98179.22;4909918;28;102342;-72
2023/03/30 08:16:15;;;;;;;;;13.50;10.00;;;;;11.64;50.97;98170.19;4906374;28;104008;-72
2023/03/30 08:18:42;;;;;;;;;9.50;8.75;;;;;11.69;51.00;98179.53;4912188;28;101794;-72
2023/03/30 08:21:09;;;;;;;;;10.25;8.25;;;;;11.94;50.24;98166.84;4917269;28;102303;-71
2023/03/30 08:23:36;;;;;;;;;5.25;5.00;;;;;12.12;50.84;98164.22;4920387;28;101971;-72
2023/03/30 08:26:03;;;;;;;;;6.00;5.50;;;;;12.27;50.44;98167.41;4918660;28;104031;-72
2023/03/30 08:28:31;;;;;;;;;9.00;9.00;;;;;12.27;50.00;98167.41;4934979;28;102201;-72
2023/03/30 08:31:05;;;;;;;;;11.00;10.00;;;;;12.22;51.09;98159.13;4916159;28;103792;-72
2023/03/30 08:33:33;;;;;;;;;10.75;9.75;;;;;12.15;50.03;98169.22;4888491;28;103110;-72
2023/03/30 08:36:00;;;;;;;;;9.50;7.50;;;;;12.25;49.62;98163.25;4928235;28;108978;-71
2023/03/30 08:38:28;;;;;;;;;8.75;7.00;;;;;12.50;50.36;98145.94;4931372;28;102138;-72
2023/03/30 08:40:55;;;;;;;;;6.00;6.00;;;;;12.70;49.35;98151.13;4946782;28;102325;-73
2023/03/30 08:43:32;;;;;;;;;6.50;5.00;;;;;12.77;48.66;98140.22;4932649;28;102077;-72
2023/03/30 08:46:01;;;;;;;;;7.25;6.25;;;;;12.69;47.75;98141.34;4928000;28;104037;-72
2023/03/30 08:48:36;;;;;;;;;7.00;6.50;;;;;12.32;49.96;98151.31;4931137;28;102283;-72
2023/03/30 08:51:14;;;;;;;;;5.75;5.25;;;;;12.26;49.94;98156.78;4928104;28;102127;-72
2023/03/30 08:53:41;;;;;;;;;6.75;5.25;;;;;12.12;49.70;98144.41;4927765;28;102283;-72
2023/03/30 08:56:38;;;;;;;;;4.00;4.00;;;;;12.25;50.74;98142.41;4928629;28;104200;-72
2023/03/30 08:59:27;;;;;;;;;1.00;1.00;;;;;12.42;50.29;98135.38;4927620;28;102338;-72
2023/03/30 09:02:15;;;;;;;;;3.25;3.00;;;;;12.45;49.84;98115.94;4929090;28;102223;-73
2023/03/30 09:05:03;;;;;;;;;2.00;2.00;;;;;12.63;50.15;98123.25;4929333;28;102496;-72
2023/03/30 09:07:50;;;;;;;;;2.50;2.00;;;;;12.76;50.84;98116.84;4925379;28;104394;-72
2023/03/30 09:10:18;;;;;;;;;3.25;2.75;;;;;12.83;49.41;98112.19;4927915;28;102031;-72
2023/03/30 09:12:53;;;;;;;;;1.75;1.25;;;;;12.81;48.82;98098.84;4929467;28;102423;-72
2023/03/30 09:15:35;;;;;;;;;1.75;1.75;;;;;12.89;49.06;98100.41;4931145;28;102093;-72
2023/03/30 09:18:44;;;;;;;;;2.50;2.50;;;;;12.81;50.78;98111.56;4930216;28;104144;-72
2023/03/30 09:21:12;;;;;;;;;2.00;1.00;;;;;12.97;50.73;98102.78;4929685;28;102161;-72
2023/03/30 09:23:39;;;;;;;;;1.75;1.00;;;;;13.03;49.86;98084.78;4928646;28;101965;-72
2023/03/30 09:26:51;;;;;;;;;1.25;1.25;;;;;13.31;48.63;98095.91;4932749;28;102207;-72
2023/03/30 09:29:29;;;;;;;;;1.00;1.00;;;;;13.51;50.36;98093.72;4927203;28;103997;-72
2023/03/30 09:32:08;;;;;;;;;2.50;2.00;;;;;13.43;48.33;98096.78;4930188;28;101773;-72
2023/03/30 09:34:44;;;;;;;;;3.00;2.00;;;;;13.44;49.54;98089.44;4931176;28;102843;-72
2023/03/30 09:37:17;;;;;;;;;2.00;2.00;;;;;13.33;48.73;98085.63;4928895;28;101984;-72
2023/03/30 09:39:45;;;;;;;;;3.75;2.00;;;;;13.42;49.48;98072.56;4929220;28;103691;-72
2023/03/30 09:42:32;;;;;;;;;1.00;1.00;;;;;13.58;49.15;98067.28;4930863;28;102200;-71
2023/03/30 09:45:10;;;;;;;;;3.25;3.00;;;;;13.68;49.51;98058.56;4928733;28;101978;-71
2023/03/30 09:47:38;;;;;;;;;2.00;2.00;;;;;13.60;48.96;98061.63;4932411;28;102207;-72
2023/03/30 09:50:08;;;;;;;;;2.25;2.00;;;;;13.75;49.43;98056.56;4930724;28;104366;-72
2023/03/30 09:52:39;;;;;;;;;3.50;2.00;;;;;13.88;48.76;98055.50;4927004;28;103644;-72
2023/03/30 09:55:20;;;;;;;;;3.50;3.00;;;;;14.01;50.03;98042.50;4930998;28;102101;-73
2023/03/30 09:57:51;;;;;;;;;3.00;3.00;;;;;13.98;49.25;98040.28;4931406;28;102024;-74
2023/03/30 10:00:28;;;;;;;;;2.75;2.00;;;;;13.94;48.86;98030.13;4928927;28;103984;-73
2023/03/30 10:02:57;;;;;;;;;0.25;0.25;;;;;14.03;49.39;98026.81;4927564;28;101961;-71
2023/03/30 10:05:26;;;;;;;;;2.50;2.50;;;;;13.94;48.30;98011.91;4930537;28;102042;-72
2023/03/30 10:08:04;;;;;;;;;4.00;2.25;;;;;13.96;49.18;98034.25;4928450;28;103559;-71
2023/03/30 10:10:39;;;;;;;;;6.25;6.00;;;;;13.94;49.79;98035.56;4912915;28;103156;-71
2023/03/30 10:13:13;;;;;;;;;9.00;7.00;;;;;13.97;48.41;98033.19;4929742;28;102808;-71
2023/03/30 10:15:47;;;;;;;;;5.00;4.25;;;;;13.99;48.98;98017.47;4919409;28;102030;-72
2023/03/30 10:18:39;;;;;;;;;5.00;4.00;;;;;14.11;48.94;98017.47;4912418;28;102089;-71
2023/03/30 10:21:14;;;;;;;;;7.50;6.50;;;;;14.07;50.56;98017.13;4892905;28;102984;-72
2023/03/30 10:23:44;;;;;;;;;6.00;4.50;;;;;14.17;48.88;98021.94;4895104;28;102078;-72
2023/03/30 10:26:18;;;;;;;;;4.25;4.25;;;;;14.13;49.81;98008.03;4906311;28;102367;-71
2023/03/30 10:29:03;;;;;;;;;2.00;2.00;;;;;14.36;50.77;97998.19;4905323;28;101994;-72
2023/03/30 10:31:35;;;;;;;;;3.00;2.00;;;;;14.24;48.55;97992.72;4900426;28;104168;-71
2023/03/30 10:34:06;;;;;;;;;1.75;1.75;;;;;14.46;49.12;98001.09;4898588;28;102415;-71
2023/03/30 10:36:38;;;;;;;;;2.50;2.00;;;;;14.39;48.81;97981.38;4896978;28;102149;-72
2023/03/30 10:39:11;;;;;;;;;2.75;2.00;;;;;14.35;48.76;97986.47;4893455;28;101977;-71
2023/03/30 10:41:40;;;;;;;;;2.50;2.00;;;;;14.37;48.26;97988.94;4897086;28;104040;-71
2023/03/30 10:44:45;;;;;;;;;2.00;2.00;;;;;14.28;48.53;97958.56;4894075;28;101971;-71
2023/03/30 10:47:41;;;;;;;;;2.00;2.00;;;;;14.58;49.33;97977.44;4883594;28;102238;-72
2023/03/30 10:50:15;;;;;;;;;1.25;1.00;;;;;14.78;49.35;97975.09;4902289;28;102315;-71
2023/03/30 10:53:20;;;;;;;;;2.25;2.00;;;;;15.05;49.60;97959.81;4896662;28;104008;-71
2023/03/30 10:56:15;;;;;;;;;2.33;2.33;;;;;15.11;47.14;97949.84;4898873;28;101760;-72
2023/03/30 10:58:55;;;;;;;;;4.00;3.50;;;;;14.99;48.49;97949.94;4894196;28;102208;-72
2023/03/30 11:01:25;;;;;;;;;2.67;2.67;;;;;15.09;48.32;97950.09;4895192;28;102166;-71
2023/03/30 11:03:59;;;;;;;;;5.00;3.50;;;;;15.05;48.69;97935.31;4892156;28;104345;-72
2023/03/30 11:06:43;;;;;;;;;2.00;2.00;;;;;15.33;48.13;97934.44;4826224;28;102546;-72
2023/03/30 11:09:26;;;;;;;;;2.33;1.67;;;;;15.21;47.43;97943.75;4861273;28;102279;-71
2023/03/30 11:12:19;;;;;;;;;3.75;3.00;;;;;14.76;48.20;97944.59;4880825;28;110493;-71
2023/03/30 11:14:51;;;;;;;;;3.00;2.00;;;;;14.67;49.00;97941.44;4884352;28;108802;-72
2023/03/30 11:17:27;;;;;;;;;4.00;4.00;;;;;14.64;49.70;97931.03;4906512;28;102429;-71
2023/03/30 11:19:56;;;;;;;;;4.75;4.00;;;;;14.44;49.60;97930.66;4912907;28;102617;-71
2023/03/30 11:22:45;;;;;;;;;2.00;2.00;;;;;14.49;49.73;97932.63;4925801;28;102458;-72
2023/03/30 11:25:25;;;;;;;;;2.50;2.00;;;;;14.55;50.22;97937.09;4928861;28;104172;-71
2023/03/30 11:27:58;;;;;;;;;3.00;3.00;;;;;14.58;50.00;97942.06;4929603;28;102102;-71
2023/03/30 11:30:28;;;;;;;;;3.75;2.50;;;;;14.65;50.18;97942.72;4929303;28;101911;-71
2023/03/30 11:33:12;;;;;;;;;2.25;2.00;;;;;14.63;49.75;97947.63;4935522;28;102066;-72
2023/03/30 11:36:22;;;;;;;;;2.25;2.00;;;;;14.38;50.55;97937.03;4933308;28;104117;-71
2023/03/30 11:39:02;;;;;;;;;1.75;1.75;;;;;14.27;49.26;97930.53;4918344;28;102278;-71
2023/03/30 11:41:39;;;;;;;;;3.00;3.00;;;;;14.19;50.80;97921.91;4905449;28;102364;-71
2023/03/30 11:44:10;;;;;;;;;4.25;4.00;;;;;14.07;51.06;97916.53;4912894;28;101982;-72
2023/03/30 11:46:48;;;;;;;;;3.25;1.75;;;;;14.10;50.90;97907.88;4911817;28;104036;-71
2023/03/30 11:49:28;;;;;;;;;0.50;0.50;;;;;14.00;52.61;97902.25;4909353;28;102196;-69
2023/03/30 11:52:15;;;;;;;;;1.75;1.75;;;;;13.93;51.84;97898.00;4912591;28;101999;-71
2023/03/30 11:55:12;;;;;;;;;2.75;1.75;;;;;14.00;52.01;97885.94;4917579;28;103124;-71
2023/03/30 11:57:46;;;;;;;;;2.00;1.75;;;;;14.11;53.02;97887.78;4908124;28;108473;-71